createdAt,value
2023-05-15T00:01:59.555Z,9.32
2023-05-15T00:04:32.845Z,5.50
2023-05-15T00:07:05.690Z,6.95
2023-05-15T00:09:39.061Z,7.20
2023-05-15T00:12:11.516Z,12.45
2023-05-15T00:14:44.422Z,5.72
2023-05-15T00:17:16.948Z,5.90
2023-05-15T00:19:49.955Z,9.18
2023-05-15T00:22:22.496Z,5.57
2023-05-15T00:24:55.423Z,7.13
2023-05-15T00:27:28.068Z,7.10
2023-05-15T00:30:00.804Z,8.48
2023-05-15T00:32:33.317Z,5.03
2023-05-15T00:35:06.521Z,5.50
2023-05-15T00:37:39.098Z,5.90
2023-05-15T00:40:17.783Z,7.35
2023-05-15T00:42:51.267Z,8.52
2023-05-15T00:45:26.150Z,7.07
2023-05-15T00:48:00.890Z,7.28
2023-05-15T00:50:33.908Z,5.13
2023-05-15T00:53:07.063Z,10.18
2023-05-15T00:55:42.454Z,8.10
2023-05-15T00:58:15.945Z,8.40
2023-05-15T01:00:50.853Z,6.80
2023-05-15T01:03:24.044Z,4.68
2023-05-15T01:05:57.149Z,13.07
2023-05-15T01:08:45.294Z,9.90
2023-05-15T01:11:18.688Z,6.85
2023-05-15T01:13:51.204Z,6.13
2023-05-15T01:16:23.964Z,9.50
2023-05-15T01:18:56.502Z,8.73
2023-05-15T01:21:35.061Z,7.38
2023-05-15T01:24:32.180Z,7.88
2023-05-15T01:27:27.405Z,6.53
2023-05-15T01:30:16.597Z,7.70
2023-05-15T01:33:08.183Z,7.25
2023-05-15T01:35:52.983Z,4.65
2023-05-15T01:38:27.655Z,3.63
2023-05-15T01:41:14.520Z,6.60
2023-05-15T01:43:52.393Z,4.72
2023-05-15T01:46:29.042Z,6.85
2023-05-15T01:49:05.227Z,5.83
2023-05-15T01:51:39.574Z,4.50
2023-05-15T01:54:14.992Z,5.90
2023-05-15T01:56:48.256Z,4.43
2023-05-15T01:59:21.963Z,4.15
2023-05-15T02:01:55.628Z,4.95
2023-05-15T02:04:28.827Z,3.72
2023-05-15T02:07:04.113Z,3.92
2023-05-15T02:09:37.330Z,5.90
2023-05-15T02:12:10.984Z,4.65
2023-05-15T02:14:45.174Z,5.88
2023-05-15T02:17:17.948Z,5.78
2023-05-15T02:19:51.306Z,5.03
2023-05-15T02:22:23.829Z,3.30
2023-05-15T02:24:56.881Z,4.43
2023-05-15T02:27:38.726Z,4.45
2023-05-15T02:30:17.675Z,4.30
2023-05-15T02:33:14.727Z,2.78
2023-05-15T02:35:59.547Z,4.00
2023-05-15T02:38:47.644Z,6.20
2023-05-15T02:41:22.065Z,4.22
2023-05-15T02:43:56.429Z,4.53
2023-05-15T02:46:30.364Z,4.63
2023-05-15T02:49:03.573Z,2.85
2023-05-15T02:51:37.293Z,4.15
2023-05-15T02:54:09.838Z,3.75
2023-05-15T02:56:42.901Z,4.80
2023-05-15T02:59:19.818Z,6.03
2023-05-15T03:01:52.620Z,6.63
2023-05-15T03:04:25.259Z,3.42
2023-05-15T03:06:58.087Z,4.68
2023-05-15T03:09:30.551Z,4.30
2023-05-15T03:12:03.403Z,2.92
2023-05-15T03:14:35.920Z,3.97
2023-05-15T03:17:08.830Z,6.95
2023-05-15T03:19:41.501Z,6.47
2023-05-15T03:22:14.714Z,4.03
2023-05-15T03:24:47.482Z,5.25
2023-05-15T03:27:20.676Z,2.83
2023-05-15T03:29:53.221Z,4.13
2023-05-15T03:32:25.994Z,3.10
2023-05-15T03:34:59.136Z,7.35
2023-05-15T03:37:31.905Z,3.50
2023-05-15T03:40:05.054Z,6.72
2023-05-15T03:42:37.811Z,4.22
2023-05-15T03:45:10.523Z,6.28
2023-05-15T03:47:43.390Z,3.60
2023-05-15T03:50:16.292Z,5.22
2023-05-15T03:52:49.151Z,2.60
2023-05-15T03:55:21.720Z,5.03
2023-05-15T03:57:54.980Z,7.25
2023-05-15T04:00:27.664Z,3.97
2023-05-15T04:03:00.926Z,15.82
2023-05-15T04:05:33.517Z,9.63
2023-05-15T04:08:07.051Z,4.57
2023-05-15T04:10:39.533Z,3.60
2023-05-15T04:13:12.456Z,4.75
2023-05-15T04:15:44.995Z,5.00
2023-05-15T04:18:17.738Z,7.30
2023-05-15T04:20:50.605Z,4.40
2023-05-15T04:23:23.356Z,5.90
2023-05-15T04:25:55.832Z,8.85
2023-05-15T04:28:29.976Z,4.95
2023-05-15T04:31:03.090Z,4.75
2023-05-15T04:33:35.939Z,4.68
2023-05-15T04:36:08.844Z,5.00
2023-05-15T04:38:41.581Z,4.90
2023-05-15T04:41:14.086Z,3.60
2023-05-15T04:43:46.866Z,5.50
2023-05-15T04:46:19.392Z,4.88
2023-05-15T04:48:52.321Z,6.13
2023-05-15T04:51:24.908Z,3.70
2023-05-15T04:53:57.631Z,3.38
2023-05-15T04:56:30.128Z,4.78
2023-05-15T04:59:04.919Z,17.02
2023-05-15T05:01:37.556Z,6.80
2023-05-15T05:04:10.440Z,4.25
2023-05-15T05:06:42.915Z,6.88
2023-05-15T05:09:15.735Z,2.97
2023-05-15T05:11:48.309Z,10.32
2023-05-15T05:14:22.168Z,4.28
2023-05-15T05:16:54.644Z,6.25
2023-05-15T05:19:28.374Z,7.78
2023-05-15T05:22:04.821Z,9.70
2023-05-15T05:24:37.727Z,5.13
2023-05-15T05:27:11.772Z,5.10
2023-05-15T05:29:44.572Z,4.88
2023-05-15T05:32:17.043Z,6.90
2023-05-15T05:34:49.840Z,5.47
2023-05-15T05:37:22.376Z,9.85
2023-05-15T05:39:55.196Z,3.15
2023-05-15T05:42:27.836Z,6.60
2023-05-15T05:45:00.653Z,6.70
2023-05-15T05:47:36.326Z,7.15
2023-05-15T05:50:09.222Z,11.32
2023-05-15T05:52:41.804Z,7.10
2023-05-15T05:55:14.980Z,10.40
2023-05-15T05:57:47.525Z,8.23
2023-05-15T06:00:20.669Z,5.47
2023-05-15T06:02:59.031Z,8.98
2023-05-15T06:05:32.097Z,9.15
2023-05-15T06:08:04.777Z,6.38
2023-05-15T06:10:37.587Z,7.30
2023-05-15T06:13:10.183Z,5.82
2023-05-15T06:15:43.492Z,6.63
2023-05-15T06:18:16.078Z,8.55
2023-05-15T06:20:48.857Z,9.65
2023-05-15T06:23:23.660Z,7.55
2023-05-15T06:25:57.116Z,7.90
2023-05-15T06:28:29.568Z,8.52
2023-05-15T06:31:02.387Z,8.27
2023-05-15T06:33:34.864Z,11.00
2023-05-15T06:36:07.814Z,7.15
2023-05-15T06:38:40.414Z,8.45
2023-05-15T06:41:13.146Z,14.35
2023-05-15T06:43:45.748Z,4.60
2023-05-15T06:46:19.234Z,9.85
2023-05-15T06:48:51.827Z,5.47
2023-05-15T06:51:24.673Z,21.25
2023-05-15T06:53:57.244Z,6.53
2023-05-15T06:56:30.008Z,6.90
2023-05-15T06:59:02.624Z,5.53
2023-05-15T07:01:36.101Z,5.00
2023-05-15T07:04:08.901Z,8.75
2023-05-15T07:06:41.784Z,12.40
2023-05-15T07:09:14.250Z,8.68
2023-05-15T07:11:47.016Z,7.68
2023-05-15T07:14:19.610Z,6.97
2023-05-15T07:16:52.417Z,6.43
2023-05-15T07:19:24.960Z,6.35
2023-05-15T07:21:58.035Z,9.82
2023-05-15T07:24:30.647Z,6.65
2023-05-15T07:27:03.510Z,14.07
2023-05-15T07:29:35.982Z,6.45
2023-05-15T07:32:08.751Z,8.10
2023-05-15T07:34:42.762Z,9.93
2023-05-15T07:37:16.904Z,9.90
2023-05-15T07:39:50.080Z,5.53
2023-05-15T07:42:22.866Z,12.63
2023-05-15T07:44:55.411Z,9.52
2023-05-15T07:47:28.250Z,6.95
2023-05-15T07:50:00.830Z,7.57
2023-05-15T07:52:33.636Z,12.48
2023-05-15T07:55:07.067Z,5.10
2023-05-15T07:57:42.632Z,7.45
2023-05-15T08:00:15.652Z,13.15
2023-05-15T08:02:48.944Z,6.53
2023-05-15T08:05:21.535Z,7.93
2023-05-15T08:07:54.322Z,6.78
2023-05-15T08:10:26.812Z,9.13
2023-05-15T08:12:59.625Z,7.32
2023-05-15T08:15:32.183Z,6.15
2023-05-15T08:18:11.626Z,8.02
2023-05-15T08:20:44.181Z,7.63
2023-05-15T08:23:17.124Z,8.40
2023-05-15T08:25:49.678Z,9.30
2023-05-15T08:28:25.355Z,9.98
2023-05-15T08:30:57.905Z,11.57
2023-05-15T08:33:30.729Z,7.68
2023-05-15T08:36:03.380Z,7.30
2023-05-15T08:38:36.273Z,5.75
2023-05-15T08:41:38.831Z,9.45
2023-05-15T08:44:14.171Z,6.55
2023-05-15T08:46:48.043Z,6.90
2023-05-15T08:49:33.559Z,5.88
2023-05-15T08:52:06.533Z,13.25
2023-05-15T08:54:40.921Z,33.22
2023-05-15T08:57:14.648Z,10.00
2023-05-15T08:59:49.469Z,6.00
2023-05-15T09:02:22.950Z,6.68
2023-05-15T09:04:55.818Z,5.88
2023-05-15T09:07:30.370Z,8.60
2023-05-15T09:10:04.167Z,11.95
2023-05-15T09:12:41.329Z,11.05
2023-05-15T09:15:25.507Z,6.43
2023-05-15T09:17:58.876Z,10.43
2023-05-15T09:20:36.940Z,10.23
2023-05-15T09:23:26.472Z,8.63
2023-05-15T09:25:59.319Z,8.07
2023-05-15T09:28:33.979Z,6.97
2023-05-15T09:31:07.267Z,6.97
2023-05-15T09:33:42.389Z,7.00
2023-05-15T09:36:22.123Z,10.32
2023-05-15T09:38:59.891Z,10.82
2023-05-15T09:41:32.716Z,5.72
2023-05-15T09:44:05.372Z,7.85
2023-05-15T09:46:38.999Z,11.07
2023-05-15T09:49:11.855Z,8.60
2023-05-15T09:51:44.963Z,11.60
2023-05-15T09:54:18.647Z,6.72
2023-05-15T09:56:51.532Z,10.35
2023-05-15T09:59:24.579Z,7.95
2023-05-15T10:01:57.660Z,7.13
2023-05-15T10:04:36.299Z,8.38
2023-05-15T10:07:10.516Z,9.02
2023-05-15T10:09:43.137Z,10.40
2023-05-15T10:12:16.015Z,9.73
2023-05-15T10:14:48.954Z,7.18
2023-05-15T10:17:23.256Z,9.48
2023-05-15T10:20:00.721Z,10.32
2023-05-15T10:22:42.157Z,12.77
2023-05-15T10:25:39.973Z,9.70
2023-05-15T10:28:14.226Z,8.60
2023-05-15T10:30:46.892Z,8.50
2023-05-15T10:33:20.650Z,8.07
2023-05-15T10:35:54.161Z,8.95
2023-05-15T10:38:27.754Z,13.02
2023-05-15T10:41:15.835Z,6.88
2023-05-15T10:43:53.052Z,10.50
2023-05-15T10:46:26.220Z,11.77
2023-05-15T10:49:00.708Z,9.77
2023-05-15T10:51:33.616Z,17.50
2023-05-15T10:54:06.643Z,8.15
2023-05-15T10:56:40.232Z,11.32
2023-05-15T10:59:13.217Z,7.22
2023-05-15T11:01:45.858Z,11.40
2023-05-15T11:04:19.619Z,8.43
2023-05-15T11:07:15.740Z,9.70
2023-05-15T11:09:48.610Z,10.57
2023-05-15T11:12:21.812Z,9.82
2023-05-15T11:14:57.398Z,11.63
2023-05-15T11:17:33.460Z,15.88
2023-05-15T11:20:06.773Z,9.68
2023-05-15T11:22:40.437Z,7.03
2023-05-15T11:25:13.198Z,7.35
2023-05-15T11:27:46.473Z,7.78
2023-05-15T11:30:22.537Z,8.23
2023-05-15T11:33:00.486Z,9.57
2023-05-15T11:35:42.154Z,8.07
2023-05-15T11:38:16.690Z,8.52
2023-05-15T11:40:59.057Z,6.90
2023-05-15T11:43:37.687Z,10.70
2023-05-15T11:46:13.020Z,8.27
2023-05-15T11:48:50.093Z,9.02
2023-05-15T11:51:26.418Z,9.63
2023-05-15T11:54:00.656Z,8.77
2023-05-15T11:56:33.452Z,7.80
2023-05-15T11:59:05.966Z,10.25
2023-05-15T12:01:42.867Z,8.05
2023-05-15T12:04:17.445Z,7.18
2023-05-15T12:06:50.928Z,8.15
2023-05-15T12:09:27.427Z,6.28
2023-05-15T12:12:00.467Z,8.95
2023-05-15T12:14:33.974Z,5.35
2023-05-15T12:17:07.188Z,6.35
2023-05-15T12:19:39.937Z,6.07
2023-05-15T12:22:13.395Z,9.63
2023-05-15T12:24:45.876Z,7.78
2023-05-15T12:27:19.115Z,7.22
2023-05-15T12:29:51.715Z,6.53
2023-05-15T12:32:26.443Z,6.80
2023-05-15T12:34:59.266Z,6.25
2023-05-15T12:37:35.863Z,6.70
2023-05-15T12:40:13.089Z,6.82
2023-05-15T12:42:46.302Z,5.57
2023-05-15T12:45:20.537Z,6.35
2023-05-15T12:47:53.362Z,7.15
2023-05-15T12:50:27.400Z,6.97
2023-05-15T12:53:04.952Z,11.63
2023-05-15T12:55:39.798Z,4.28
2023-05-15T12:58:15.196Z,6.85
2023-05-15T13:00:48.927Z,4.90
2023-05-15T13:03:22.230Z,6.45
2023-05-15T13:05:55.416Z,6.05
2023-05-15T13:08:29.193Z,5.03
2023-05-15T13:11:01.741Z,6.18
2023-05-15T13:14:00.981Z,5.10
2023-05-15T13:16:36.410Z,4.93
2023-05-15T13:19:09.879Z,4.60
2023-05-15T13:21:42.488Z,4.60
2023-05-15T13:24:15.718Z,6.25
2023-05-15T13:26:48.262Z,4.57
2023-05-15T13:29:21.005Z,6.03
2023-05-15T13:31:53.589Z,6.00
2023-05-15T13:34:26.373Z,6.22
2023-05-15T13:36:58.832Z,6.60
2023-05-15T13:39:31.654Z,7.18
2023-05-15T13:42:04.331Z,5.57
2023-05-15T13:44:37.822Z,6.78
2023-05-15T13:47:10.529Z,5.25
2023-05-15T13:49:43.536Z,5.63
2023-05-15T13:52:16.658Z,9.90
2023-05-15T13:54:50.020Z,7.35
2023-05-15T13:57:22.905Z,7.05
2023-05-15T13:59:55.713Z,7.25
2023-05-15T14:02:28.810Z,7.05
2023-05-15T14:05:01.743Z,8.25
2023-05-15T14:07:34.283Z,8.88
2023-05-15T14:10:08.187Z,6.90
2023-05-15T14:12:42.546Z,6.25
2023-05-15T14:15:15.771Z,9.43
2023-05-15T14:17:48.885Z,8.13
2023-05-15T14:20:21.749Z,8.77
2023-05-15T14:22:54.268Z,6.65
2023-05-15T14:25:27.041Z,7.18
2023-05-15T14:27:59.507Z,6.47
2023-05-15T14:30:32.448Z,7.22
2023-05-15T14:33:06.312Z,6.53
2023-05-15T14:35:39.650Z,5.70
2023-05-15T14:38:12.331Z,11.57
2023-05-15T14:40:45.489Z,7.82
2023-05-15T14:43:18.206Z,9.25
2023-05-15T14:45:51.695Z,6.68
2023-05-15T14:48:24.324Z,8.40
2023-05-15T14:50:58.586Z,8.32
2023-05-15T14:53:31.414Z,9.15
2023-05-15T14:56:04.402Z,6.57
2023-05-15T14:58:36.985Z,5.75
2023-05-15T15:01:09.882Z,6.00
2023-05-15T15:03:42.906Z,5.05
2023-05-15T15:06:15.796Z,9.30
2023-05-15T15:08:48.388Z,6.72
2023-05-15T15:11:21.245Z,6.30
2023-05-15T15:13:53.735Z,10.98
2023-05-15T15:16:26.600Z,5.63
2023-05-15T15:18:59.281Z,7.10
2023-05-15T15:21:34.817Z,6.70
2023-05-15T15:24:07.565Z,8.20
2023-05-15T15:26:40.617Z,9.25
2023-05-15T15:29:17.147Z,6.78
2023-05-15T15:31:51.484Z,13.40
2023-05-15T15:34:25.400Z,6.47
2023-05-15T15:36:58.428Z,7.90
2023-05-15T15:39:32.690Z,8.98
2023-05-15T15:42:05.838Z,10.13
2023-05-15T15:44:38.597Z,12.75
2023-05-15T15:47:11.334Z,8.20
2023-05-15T15:49:43.884Z,11.38
2023-05-15T15:52:17.302Z,14.57
2023-05-15T15:54:49.836Z,7.43
2023-05-15T15:57:22.660Z,5.80
2023-05-15T15:59:55.198Z,7.28
2023-05-15T16:02:28.565Z,8.50
2023-05-15T16:05:01.119Z,7.35
2023-05-15T16:07:34.333Z,7.57
2023-05-15T16:10:12.855Z,10.35
2023-05-15T16:12:46.412Z,11.38
2023-05-15T16:15:23.157Z,11.85
2023-05-15T16:17:56.933Z,6.72
2023-05-15T16:20:29.974Z,7.55
2023-05-15T16:23:02.929Z,6.35
2023-05-15T16:25:35.468Z,8.50
2023-05-15T16:28:09.993Z,6.85
2023-05-15T16:30:48.666Z,7.20
2023-05-15T16:33:25.216Z,6.95
2023-05-15T16:35:59.861Z,8.15
2023-05-15T16:38:32.688Z,11.15
2023-05-15T16:41:05.472Z,7.15
2023-05-15T16:43:38.363Z,11.38
2023-05-15T16:46:10.965Z,15.00
2023-05-15T16:48:44.345Z,20.90
2023-05-15T16:51:16.873Z,9.43
2023-05-15T16:53:49.624Z,8.90
2023-05-15T16:56:22.598Z,9.30
2023-05-15T16:58:56.984Z,10.55
2023-05-15T17:01:32.850Z,10.63
2023-05-15T17:04:09.549Z,10.38
2023-05-15T17:06:44.309Z,10.02
2023-05-15T17:09:17.144Z,13.80
2023-05-15T17:11:49.576Z,9.20
2023-05-15T17:14:22.828Z,16.63
2023-05-15T17:16:55.357Z,12.55
2023-05-15T17:19:28.128Z,11.45
2023-05-15T17:22:00.690Z,17.20
2023-05-15T17:24:46.355Z,12.20
2023-05-15T17:27:22.352Z,10.38
2023-05-15T17:29:55.223Z,13.25
2023-05-15T17:32:27.968Z,14.38
2023-05-15T17:35:01.093Z,11.77
2023-05-15T17:37:39.405Z,11.57
2023-05-15T17:40:12.405Z,10.48
2023-05-15T17:42:44.906Z,11.40
2023-05-15T17:45:17.675Z,12.90
2023-05-15T17:47:50.282Z,9.75
2023-05-15T17:50:23.198Z,13.10
2023-05-15T17:52:55.742Z,14.27
2023-05-15T17:55:28.564Z,13.68
2023-05-15T17:58:01.139Z,11.73
2023-05-15T18:00:34.003Z,14.85
2023-05-15T18:03:06.844Z,12.32
2023-05-15T18:05:39.760Z,13.02
2023-05-15T18:08:12.436Z,14.80
2023-05-15T18:10:46.618Z,13.93
2023-05-15T18:13:19.337Z,15.70
2023-05-15T18:15:55.259Z,14.63
2023-05-15T18:18:27.821Z,16.83
2023-05-15T18:21:00.590Z,14.70
2023-05-15T18:23:33.360Z,16.05
2023-05-15T18:26:06.350Z,14.52
2023-05-15T18:28:38.823Z,23.10
2023-05-15T18:31:11.594Z,20.13
2023-05-15T18:33:45.183Z,16.40
2023-05-15T18:36:18.400Z,17.23
2023-05-15T18:38:50.935Z,17.88
2023-05-15T18:41:23.962Z,22.90
2023-05-15T18:43:56.648Z,19.33
2023-05-15T18:46:31.228Z,20.27
2023-05-15T18:49:03.857Z,21.75
2023-05-15T18:51:36.784Z,24.00
2023-05-15T18:54:09.296Z,25.85
2023-05-15T18:56:43.259Z,22.42
2023-05-15T18:59:15.883Z,19.17
2023-05-15T19:01:53.340Z,23.90
2023-05-15T19:04:26.114Z,20.67
2023-05-15T19:06:58.898Z,21.13
2023-05-15T19:09:31.600Z,26.42
2023-05-15T19:12:05.574Z,28.90
2023-05-15T19:14:38.247Z,19.67
2023-05-15T19:17:11.254Z,22.30
2023-05-15T19:19:43.742Z,24.45
2023-05-15T19:22:17.496Z,21.92
2023-05-15T19:24:50.080Z,21.48
2023-05-15T19:27:22.863Z,24.40
2023-05-15T19:29:56.787Z,22.35
2023-05-15T19:32:31.874Z,21.40
2023-05-15T19:35:05.452Z,24.15
2023-05-15T19:37:40.746Z,21.08
2023-05-15T19:40:13.554Z,20.27
2023-05-15T19:42:46.646Z,19.20
2023-05-15T19:45:19.213Z,21.65
2023-05-15T19:47:52.021Z,20.63
2023-05-15T19:50:24.641Z,25.38
2023-05-15T19:52:57.582Z,22.23
2023-05-15T19:55:30.151Z,24.13
2023-05-15T19:58:02.990Z,26.70
2023-05-15T20:00:36.283Z,24.42
2023-05-15T20:03:09.392Z,23.92
2023-05-15T20:05:44.735Z,18.70
2023-05-15T20:08:17.831Z,23.00
2023-05-15T20:10:53.791Z,20.65
2023-05-15T20:13:26.570Z,19.40
2023-05-15T20:16:00.154Z,23.40
2023-05-15T20:18:34.839Z,18.33
2023-05-15T20:21:07.725Z,15.35
2023-05-15T20:23:40.972Z,14.93
2023-05-15T20:26:13.513Z,13.82
2023-05-15T20:28:46.288Z,13.02
2023-05-15T20:31:19.230Z,13.60
2023-05-15T20:33:52.266Z,12.02
2023-05-15T20:36:28.357Z,12.80
2023-05-15T20:39:05.668Z,10.48
2023-05-15T20:41:38.407Z,13.77
2023-05-15T20:44:11.382Z,11.98
2023-05-15T20:46:44.916Z,12.40
2023-05-15T20:49:20.766Z,12.15
2023-05-15T20:51:53.614Z,11.45
2023-05-15T20:54:26.889Z,11.15
2023-05-15T20:56:59.606Z,13.65
2023-05-15T20:59:32.400Z,13.43
2023-05-15T21:02:05.281Z,12.60
2023-05-15T21:04:39.299Z,13.15
2023-05-15T21:07:11.852Z,11.40
2023-05-15T21:09:44.977Z,16.33
2023-05-15T21:12:17.592Z,14.27
2023-05-15T21:14:50.707Z,12.23
2023-05-15T21:17:23.247Z,14.10
2023-05-15T21:19:58.581Z,11.60
2023-05-15T21:22:32.075Z,15.13
2023-05-15T21:25:05.153Z,15.70
2023-05-15T21:27:37.646Z,23.60
2023-05-15T21:30:11.566Z,14.32
2023-05-15T21:32:46.597Z,17.08
2023-05-15T21:35:21.781Z,14.52
2023-05-15T21:37:54.350Z,15.13
2023-05-15T21:40:27.629Z,19.20
2023-05-15T21:43:00.380Z,18.67
2023-05-15T21:45:37.566Z,29.55
2023-05-15T21:48:10.458Z,17.38
2023-05-15T21:50:43.735Z,20.98
2023-05-15T21:53:16.361Z,18.83
2023-05-15T21:56:02.352Z,19.13
2023-05-15T21:58:39.916Z,17.55
2023-05-15T22:01:20.580Z,18.47
2023-05-15T22:03:56.060Z,18.75
2023-05-15T22:06:31.907Z,17.77
2023-05-15T22:09:06.373Z,17.42
2023-05-15T22:11:43.998Z,19.00
2023-05-15T22:14:19.706Z,26.23
2023-05-15T22:16:57.019Z,17.98
2023-05-15T22:19:33.399Z,20.60
2023-05-15T22:22:06.538Z,19.35
2023-05-15T22:24:39.003Z,18.65
2023-05-15T22:27:11.832Z,18.15
2023-05-15T22:29:44.324Z,17.88
2023-05-15T22:32:17.315Z,26.50
2023-05-15T22:34:49.909Z,17.00
2023-05-15T22:37:22.679Z,19.15
2023-05-15T22:39:55.164Z,21.20
2023-05-15T22:42:28.184Z,18.85
2023-05-15T22:45:01.069Z,22.20
2023-05-15T22:47:34.059Z,25.52
2023-05-15T22:50:07.875Z,17.92
2023-05-15T22:52:41.182Z,19.23
2023-05-15T22:55:16.456Z,17.67
2023-05-15T22:57:52.287Z,16.30
2023-05-15T23:00:25.070Z,19.45
2023-05-15T23:02:58.161Z,17.45
2023-05-15T23:05:30.680Z,15.68
2023-05-15T23:08:03.552Z,16.65
2023-05-15T23:10:36.082Z,15.10
2023-05-15T23:13:08.878Z,17.52
2023-05-15T23:15:41.417Z,15.60
2023-05-15T23:18:14.359Z,15.85
2023-05-15T23:20:46.828Z,14.18
2023-05-15T23:23:19.712Z,14.52
2023-05-15T23:25:52.188Z,15.73
2023-05-15T23:28:24.982Z,15.02
2023-05-15T23:30:57.548Z,13.50
2023-05-15T23:33:30.420Z,12.00
2023-05-15T23:36:02.938Z,11.70
2023-05-15T23:38:35.949Z,15.32
2023-05-15T23:41:08.669Z,13.68
2023-05-15T23:43:41.414Z,14.40
2023-05-15T23:46:13.977Z,15.15
2023-05-15T23:48:46.913Z,12.68
2023-05-15T23:51:20.551Z,16.05
2023-05-15T23:53:53.417Z,15.50
2023-05-15T23:56:26.046Z,15.05
2023-05-15T23:58:58.795Z,13.27
